createdAt,value
2018-06-17T00:00:57.263Z,93.70
2018-06-17T00:04:00.912Z,93.60
2018-06-17T00:07:04.872Z,93.70
2018-06-17T00:10:08.489Z,93.60
2018-06-17T00:13:12.114Z,93.90
2018-06-17T00:16:15.955Z,93.80
2018-06-17T00:19:19.569Z,94.00
2018-06-17T00:22:23.206Z,94.20
2018-06-17T00:25:26.910Z,94.50
2018-06-17T00:28:30.545Z,94.50
2018-06-17T00:31:34.165Z,94.70
2018-06-17T00:34:37.801Z,94.80
2018-06-17T00:37:41.422Z,95.00
2018-06-17T00:40:45.092Z,95.20
2018-06-17T00:43:48.721Z,95.30
2018-06-17T00:46:52.398Z,95.50
2018-06-17T00:49:56.025Z,95.60
2018-06-17T00:52:59.686Z,95.70
2018-06-17T00:56:03.310Z,95.80
2018-06-17T01:02:10.298Z,96.10
2018-06-17T01:05:14.055Z,96.50
2018-06-17T01:08:17.678Z,96.20
2018-06-17T01:11:21.310Z,96.40
2018-06-17T01:14:24.928Z,96.50
2018-06-17T01:17:28.565Z,96.60
2018-06-17T01:20:32.183Z,96.90
2018-06-17T01:23:35.809Z,97.20
2018-06-17T01:26:39.490Z,97.20
2018-06-17T01:29:43.109Z,97.20
2018-06-17T01:32:46.765Z,97.40
2018-06-17T01:35:50.378Z,97.50
2018-06-17T01:38:54.031Z,97.80
2018-06-17T01:41:57.644Z,97.90
2018-06-17T01:48:04.689Z,98.40
2018-06-17T01:51:08.322Z,98.50
2018-06-17T01:54:11.941Z,98.40
2018-06-17T01:57:15.587Z,98.40
2018-06-17T02:00:20.012Z,98.70
2018-06-17T02:03:29.446Z,98.90
2018-06-17T02:06:38.695Z,99.00
2018-06-17T02:09:47.761Z,99.20
2018-06-17T02:12:51.419Z,99.20
2018-06-17T02:15:55.303Z,99.10
2018-06-17T02:18:58.946Z,99.20
2018-06-17T02:25:12.743Z,99.30
2018-06-17T02:34:23.179Z,99.20
2018-06-17T02:37:26.899Z,99.60
2018-06-17T02:40:30.619Z,99.40
2018-06-17T02:43:34.262Z,99.40
2018-06-17T02:46:43.379Z,99.80
2018-06-17T02:52:56.602Z,99.80
2018-06-17T02:56:00.213Z,99.90
2018-06-17T02:59:03.860Z,99.90
2018-06-17T03:02:07.806Z,99.90
2018-06-17T03:05:11.651Z,99.90
2018-06-17T03:11:18.857Z,99.90
2018-06-17T03:17:25.874Z,99.90
2018-06-17T03:20:29.504Z,99.90
2018-06-17T03:23:33.129Z,99.90
2018-06-17T03:30:54.788Z,99.90
2018-06-17T03:33:58.410Z,99.60
2018-06-17T03:37:02.057Z,98.90
2018-06-17T03:40:05.683Z,98.10
2018-06-17T03:43:09.642Z,97.50
2018-06-17T03:46:13.262Z,97.20
2018-06-17T03:49:16.999Z,96.40
2018-06-17T03:52:20.627Z,96.20
2018-06-17T03:58:27.686Z,95.50
2018-06-17T04:01:31.322Z,95.20
2018-06-17T04:07:43.866Z,95.70
2018-06-17T04:10:47.498Z,95.40
2018-06-17T04:13:51.122Z,95.10
2018-06-17T04:16:57.921Z,94.40
2018-06-17T04:20:01.648Z,94.00
2018-06-17T04:23:05.456Z,93.50
2018-06-17T04:26:09.043Z,92.80
2018-06-17T04:29:12.815Z,92.30
2018-06-17T04:32:16.593Z,92.10
2018-06-17T04:35:21.419Z,92.10
2018-06-17T04:38:25.031Z,91.30
2018-06-17T04:41:28.678Z,91.20
2018-06-17T04:44:39.019Z,90.60
2018-06-17T04:47:42.672Z,90.20
2018-06-17T04:50:46.313Z,90.20
2018-06-17T04:53:49.946Z,89.60
2018-06-17T04:56:53.643Z,89.00
2018-06-17T04:59:57.589Z,88.30
2018-06-17T05:03:01.165Z,88.60
2018-06-17T05:06:04.991Z,87.90
2018-06-17T05:12:12.757Z,90.10
2018-06-17T05:15:16.384Z,91.50
2018-06-17T05:18:20.020Z,91.50
2018-06-17T05:21:23.641Z,92.50
2018-06-17T05:24:27.290Z,93.50
2018-06-17T05:27:30.907Z,94.30
2018-06-17T05:33:37.900Z,94.90
2018-06-17T05:36:41.548Z,95.00
2018-06-17T05:39:45.172Z,95.00
2018-06-17T05:42:48.809Z,94.20
2018-06-17T05:48:55.934Z,93.90
2018-06-17T05:55:25.773Z,92.20
2018-06-17T05:58:29.409Z,90.80
2018-06-17T06:01:33.036Z,90.30
2018-06-17T06:04:36.679Z,89.70
2018-06-17T06:07:40.290Z,88.10
2018-06-17T06:10:43.925Z,87.60
2018-06-17T06:13:47.543Z,87.10
2018-06-17T06:16:51.178Z,85.50
2018-06-17T06:19:54.795Z,85.60
2018-06-17T06:22:58.441Z,85.80
2018-06-17T06:26:02.052Z,84.80
2018-06-17T06:29:05.710Z,84.70
2018-06-17T06:32:09.414Z,84.40
2018-06-17T06:35:13.054Z,83.80
2018-06-17T06:38:16.689Z,83.30
2018-06-17T06:41:20.340Z,83.00
2018-06-17T06:44:24.035Z,81.60
2018-06-17T06:47:27.663Z,81.20
2018-06-17T06:50:31.401Z,80.90
2018-06-17T06:53:35.230Z,81.10
2018-06-17T06:56:39.114Z,80.60
2018-06-17T07:02:57.650Z,79.60
2018-06-17T07:06:12.795Z,80.70
2018-06-17T07:13:35.090Z,80.10
2018-06-17T07:16:50.191Z,80.00
2018-06-17T07:22:57.369Z,80.20
2018-06-17T07:26:38.626Z,80.30
2018-06-17T07:29:43.823Z,80.00
2018-06-17T07:32:47.454Z,81.20
2018-06-17T07:35:51.112Z,82.00
2018-06-17T07:41:58.431Z,80.40
2018-06-17T07:45:02.068Z,81.30
2018-06-17T07:48:05.790Z,79.50
2018-06-17T07:51:21.121Z,79.00
2018-06-17T07:54:24.749Z,79.20
2018-06-17T07:57:29.719Z,77.50
2018-06-17T08:00:33.465Z,77.90
2018-06-17T08:03:37.103Z,77.40
2018-06-17T08:06:40.722Z,78.50
2018-06-17T08:09:44.347Z,79.50
2018-06-17T08:12:48.008Z,80.90
2018-06-17T08:15:51.634Z,80.80
2018-06-17T08:18:55.361Z,79.90
2018-06-17T08:21:59.838Z,80.00
2018-06-17T08:25:03.462Z,80.60
2018-06-17T08:28:07.096Z,80.20
2018-06-17T08:31:10.791Z,80.70
2018-06-17T08:34:14.486Z,79.70
2018-06-17T08:40:21.953Z,81.90
2018-06-17T08:49:33.201Z,84.60
2018-06-17T08:52:36.810Z,84.50
2018-06-17T08:55:41.241Z,82.40
2018-06-17T08:58:45.010Z,82.30
2018-06-17T09:01:48.618Z,81.50
2018-06-17T09:04:52.252Z,81.00
2018-06-17T09:07:56.103Z,81.60
2018-06-17T09:10:59.750Z,82.80
2018-06-17T09:17:06.713Z,82.80
2018-06-17T09:20:10.519Z,84.40
2018-06-17T09:23:14.160Z,84.20
2018-06-17T09:26:17.828Z,84.80
2018-06-17T09:29:21.521Z,84.60
2018-06-17T09:32:25.176Z,84.70
2018-06-17T09:35:28.876Z,85.10
2018-06-17T09:38:32.480Z,86.50
2018-06-17T09:44:39.448Z,86.30
2018-06-17T09:47:43.054Z,85.90
2018-06-17T09:50:46.695Z,84.80
2018-06-17T09:53:50.329Z,84.40
2018-06-17T09:56:54.043Z,84.20
2018-06-17T09:59:57.691Z,84.60
2018-06-17T10:06:04.710Z,84.10
2018-06-17T10:09:08.899Z,84.30
2018-06-17T10:15:15.886Z,85.40
2018-06-17T10:21:23.529Z,86.20
2018-06-17T10:24:27.162Z,84.60
2018-06-17T10:27:30.859Z,86.30
2018-06-17T10:30:35.416Z,86.20
2018-06-17T10:33:39.022Z,85.60
2018-06-17T10:36:42.746Z,85.10
2018-06-17T10:39:46.441Z,85.70
2018-06-17T10:45:53.420Z,86.10
2018-06-17T10:48:57.079Z,86.00
2018-06-17T10:55:04.035Z,86.10
2018-06-17T10:58:07.683Z,86.20
2018-06-17T11:01:11.326Z,86.50
2018-06-17T11:05:18.381Z,87.40
2018-06-17T11:08:21.987Z,87.70
2018-06-17T11:11:25.688Z,86.90
2018-06-17T11:14:29.313Z,86.70
2018-06-17T11:17:32.955Z,85.80
2018-06-17T11:20:36.582Z,85.50
2018-06-17T11:23:40.189Z,84.80
2018-06-17T11:26:43.813Z,84.50
2018-06-17T11:29:47.414Z,84.60
2018-06-17T11:32:51.055Z,85.30
2018-06-17T11:38:58.371Z,84.80
2018-06-17T11:42:02.068Z,84.90
2018-06-17T11:45:05.683Z,85.30
2018-06-17T11:48:09.320Z,84.10
2018-06-17T11:51:13.032Z,84.80
2018-06-17T11:54:16.661Z,84.20
2018-06-17T11:57:20.423Z,83.50
2018-06-17T12:00:24.042Z,84.30
2018-06-17T12:03:27.683Z,83.80
2018-06-17T12:09:34.681Z,85.00
2018-06-17T12:12:38.286Z,83.90
2018-06-17T12:18:46.059Z,83.80
2018-06-17T12:21:49.735Z,83.60
2018-06-17T12:24:53.410Z,83.70
2018-06-17T12:27:57.089Z,83.50
2018-06-17T12:31:00.664Z,83.90
2018-06-17T12:37:07.655Z,82.70
